Time;durP1;ratioP1;P1;durP2;ratioP2;P2;SDS_P1;SDS_P2;PMS_P1;PMS_P2;Temp;Humidity;BMP_temperature;BMP_pressure;BME280_temperature;BME280_humidity;BME280_pressure;Samples;Min_cycle;Max_cycle;Signal;HPM_P1;HPM_P2
2022/06/17 00:00:40;;;;;;;;;;;14.60;99.90;;;;;;5052475;28;19931;-67
2022/06/17 00:03:06;;;;;;;;;;;14.60;99.90;;;;;;5051967;28;19924;-67
2022/06/17 00:05:32;;;;;;;;;;;14.60;99.90;;;;;;5049339;28;19967;-68
2022/06/17 00:07:57;;;;;;;;;;;14.60;99.90;;;;;;5052382;28;19962;-68
2022/06/17 00:10:24;;;;;;;;;;;14.80;99.90;;;;;;5048484;28;20401;-68
2022/06/17 00:12:50;;;;;;;;;;;14.60;99.90;;;;;;5049256;28;19935;-68
2022/06/17 00:15:16;;;;;;;;;;;14.60;99.90;;;;;;5046820;28;19920;-68
2022/06/17 00:17:53;;;;;;;;;;;14.60;99.90;;;;;;5052888;28;19947;-68
2022/06/17 00:20:20;;;;;;;;;;;14.70;99.90;;;;;;5053810;28;20007;-68
2022/06/17 00:22:46;;;;;;;;;;;14.70;99.90;;;;;;5050340;28;20304;-68
2022/06/17 00:25:15;;;;;;;;;;;14.70;99.90;;;;;;5050241;28;19924;-68
2022/06/17 00:27:41;;;;;;;;;;;14.70;99.90;;;;;;5052281;28;19975;-68
2022/06/17 00:30:14;;;;;;;;;;;14.70;99.90;;;;;;5050919;28;19924;-68
2022/06/17 00:32:39;;;;;;;;;;;14.70;99.90;;;;;;5061824;28;19924;-68
2022/06/17 00:35:06;;;;;;;;;;;14.70;99.90;;;;;;5056487;28;19924;-68
2022/06/17 00:37:31;;;;;;;;;;;14.70;99.90;;;;;;5053424;28;20405;-68
2022/06/17 00:39:57;;;;;;;;;;;14.70;99.90;;;;;;5053073;28;19920;-68
2022/06/17 00:42:22;;;;;;;;;;;14.60;99.90;;;;;;5059177;28;19959;-68
2022/06/17 00:44:58;;;;;;;;;;;14.70;99.90;;;;;;5057417;28;20521;-68
2022/06/17 00:47:30;;;;;;;;;;;14.70;99.90;;;;;;5053995;28;20011;-68
2022/06/17 00:49:58;;;;;;;;;;;14.70;99.90;;;;;;5055167;28;19978;-68
2022/06/17 00:52:25;;;;;;;;;;;14.70;99.90;;;;;;5054643;28;19976;-68
2022/06/17 00:54:53;;;;;;;;;;;14.70;99.90;;;;;;5056583;28;19924;-68
2022/06/17 00:57:21;;;;;;;;;;;14.70;99.90;;;;;;5050771;28;20387;-68
2022/06/17 01:00:19;;;;;;;;;;;14.70;99.90;;;;;;5058160;28;19920;-68
2022/06/17 01:02:46;;;;;;;;;;;14.60;99.90;;;;;;5037571;28;20007;-68
2022/06/17 01:05:12;;;;;;;;;;;14.60;99.90;;;;;;5053895;28;20284;-67
2022/06/17 01:07:40;;;;;;;;;;;14.60;99.90;;;;;;5054229;28;19925;-68
2022/06/17 01:10:09;;;;;;;;;;;14.50;99.90;;;;;;5054818;28;19931;-68
2022/06/17 01:12:39;;;;;;;;;;;14.50;99.90;;;;;;5053077;28;19928;-68
2022/06/17 01:15:06;;;;;;;;;;;14.50;99.90;;;;;;5063110;28;20032;-68
2022/06/17 01:17:32;;;;;;;;;;;14.50;99.90;;;;;;5051383;28;19920;-68
2022/06/17 01:20:00;;;;;;;;;;;14.50;99.90;;;;;;5054704;28;20331;-68
2022/06/17 01:22:26;;;;;;;;;;;14.50;99.90;;;;;;5054241;28;19928;-68
2022/06/17 01:25:03;;;;;;;;;;;14.50;99.90;;;;;;5052943;28;19928;-68
2022/06/17 01:27:30;;;;;;;;;;;14.50;99.90;;;;;;5053968;28;19947;-68
2022/06/17 01:29:56;;;;;;;;;;;14.80;99.90;;;;;;5054325;28;19932;-68
2022/06/17 01:32:25;;;;;;;;;;;14.50;99.90;;;;;;5050690;28;19943;-68
2022/06/17 01:34:51;;;;;;;;;;;14.50;99.90;;;;;;5055704;28;19924;-68
2022/06/17 01:37:17;;;;;;;;;;;14.70;99.90;;;;;;5055679;28;19920;-68
2022/06/17 01:39:42;;;;;;;;;;;14.40;99.90;;;;;;5053887;28;19920;-68
2022/06/17 01:42:09;;;;;;;;;;;14.40;99.90;;;;;;5054322;28;19924;-68
2022/06/17 01:44:35;;;;;;;;;;;14.40;99.90;;;;;;5054307;28;19924;-68
2022/06/17 01:47:03;;;;;;;;;;;14.40;99.90;;;;;;5053515;28;19964;-68
2022/06/17 01:49:32;;;;;;;;;;;14.40;99.90;;;;;;5055049;28;19963;-68
2022/06/17 01:52:00;;;;;;;;;;;14.40;99.90;;;;;;5050780;28;19963;-68
2022/06/17 01:54:27;;;;;;;;;;;14.40;99.90;;;;;;5053230;28;20475;-68
2022/06/17 01:56:55;;;;;;;;;;;14.40;99.90;;;;;;5049904;28;19932;-68
2022/06/17 01:59:24;;;;;;;;;;;14.40;99.90;;;;;;5054969;28;19936;-68
2022/06/17 02:01:52;;;;;;;;;;;14.60;99.90;;;;;;5051923;28;20011;-68
2022/06/17 02:04:19;;;;;;;;;;;14.30;99.90;;;;;;5053043;28;19928;-68
2022/06/17 02:06:54;;;;;;;;;;;14.30;99.90;;;;;;5053283;28;19924;-68
2022/06/17 02:09:20;;;;;;;;;;;14.30;99.90;;;;;;5051551;28;19925;-68
2022/06/17 02:11:46;;;;;;;;;;;14.70;99.90;;;;;;5052091;28;19932;-68
2022/06/17 02:14:12;;;;;;;;;;;14.30;99.90;;;;;;5049994;28;19932;-68
2022/06/17 02:16:43;;;;;;;;;;;14.30;99.90;;;;;;5052330;28;19928;-68
2022/06/17 02:19:09;;;;;;;;;;;14.20;99.90;;;;;;5055850;28;19964;-68
2022/06/17 02:21:38;;;;;;;;;;;14.30;99.90;;;;;;5053305;28;20046;-68
2022/06/17 02:24:04;;;;;;;;;;;14.50;99.90;;;;;;5052925;28;20011;-68
2022/06/17 02:26:32;;;;;;;;;;;14.20;99.90;;;;;;5050339;28;20351;-68
2022/06/17 02:28:57;;;;;;;;;;;14.20;99.90;;;;;;5051044;28;19927;-68
2022/06/17 02:31:23;;;;;;;;;;;14.20;99.90;;;;;;5051672;28;19928;-68
2022/06/17 02:33:51;;;;;;;;;;;14.20;99.90;;;;;;5055733;28;20006;-68
2022/06/17 02:36:40;;;;;;;;;;;14.20;99.90;;;;;;5048746;28;20563;-68
2022/06/17 02:39:06;;;;;;;;;;;14.20;99.90;;;;;;5052238;28;19925;-68
2022/06/17 02:41:32;;;;;;;;;;;14.20;99.90;;;;;;5053606;28;19982;-68
2022/06/17 02:44:14;;;;;;;;;;;14.20;99.90;;;;;;5053878;28;19943;-68
2022/06/17 02:46:40;;;;;;;;;;;14.10;99.90;;;;;;5052694;28;20011;-68
2022/06/17 02:49:09;;;;;;;;;;;14.10;99.90;;;;;;5047467;28;19971;-68
2022/06/17 02:51:37;;;;;;;;;;;14.10;99.90;;;;;;5055321;28;19935;-68
2022/06/17 02:54:04;;;;;;;;;;;14.10;99.90;;;;;;5051704;28;19947;-68
2022/06/17 02:56:31;;;;;;;;;;;14.00;99.90;;;;;;5048688;28;20377;-68
2022/06/17 02:59:10;;;;;;;;;;;14.00;99.90;;;;;;5051284;28;19926;-68
2022/06/17 03:01:37;;;;;;;;;;;14.00;99.90;;;;;;5052734;28;19924;-68
2022/06/17 03:04:10;;;;;;;;;;;14.00;99.90;;;;;;5050835;28;19921;-68
2022/06/17 03:06:37;;;;;;;;;;;14.00;99.90;;;;;;5054660;28;20037;-68
2022/06/17 03:09:17;;;;;;;;;;;14.00;99.90;;;;;;5053972;28;19921;-68
2022/06/17 03:11:43;;;;;;;;;;;14.00;99.90;;;;;;5050511;28;19931;-68
2022/06/17 03:14:12;;;;;;;;;;;14.10;99.90;;;;;;5053777;28;19931;-68
2022/06/17 03:16:38;;;;;;;;;;;14.10;99.90;;;;;;5053726;28;19921;-68
2022/06/17 03:19:04;;;;;;;;;;;14.20;99.90;;;;;;5052250;28;19924;-68
2022/06/17 03:21:29;;;;;;;;;;;14.20;99.90;;;;;;5053525;28;20371;-68
2022/06/17 03:24:04;;;;;;;;;;;14.20;99.90;;;;;;5053106;28;20320;-68
2022/06/17 03:26:34;;;;;;;;;;;14.20;99.90;;;;;;5050994;28;19936;-67
2022/06/17 03:29:01;;;;;;;;;;;14.20;99.90;;;;;;5053958;28;19997;-68
2022/06/17 03:31:30;;;;;;;;;;;14.30;99.90;;;;;;5051590;28;19920;-68
2022/06/17 03:34:05;;;;;;;;;;;14.20;99.90;;;;;;5049193;28;19975;-68
2022/06/17 03:36:32;;;;;;;;;;;14.20;99.90;;;;;;5056834;28;20388;-68
2022/06/17 03:39:00;;;;;;;;;;;14.20;99.90;;;;;;5052499;28;19924;-68
2022/06/17 03:41:33;;;;;;;;;;;14.20;99.90;;;;;;5046581;28;19994;-68
2022/06/17 03:44:01;;;;;;;;;;;14.20;99.90;;;;;;5047279;28;20027;-68
2022/06/17 03:46:27;;;;;;;;;;;14.20;99.90;;;;;;5047703;28;19936;-68
2022/06/17 03:48:58;;;;;;;;;;;14.20;99.90;;;;;;5047422;28;20381;-68
2022/06/17 03:51:24;;;;;;;;;;;14.20;99.90;;;;;;5044573;28;20343;-68
2022/06/17 03:53:51;;;;;;;;;;;13.60;99.90;;;;;;5048677;28;19924;-68
2022/06/17 03:56:19;;;;;;;;;;;14.20;99.90;;;;;;5048538;28;19921;-68
2022/06/17 03:58:46;;;;;;;;;;;14.20;99.90;;;;;;5052217;28;20296;-68
2022/06/17 04:01:16;;;;;;;;;;;12.90;99.90;;;;;;5051454;28;19925;-68
2022/06/17 04:03:44;;;;;;;;;;;14.20;99.90;;;;;;5045738;28;19931;-68
2022/06/17 04:06:22;;;;;;;;;;;14.20;99.90;;;;;;5050020;28;20362;-68
2022/06/17 04:08:55;;;;;;;;;;;14.20;99.90;;;;;;5055717;28;20553;-68
2022/06/17 04:11:22;;;;;;;;;;;14.20;99.90;;;;;;5053719;28;20007;-68
2022/06/17 04:13:48;;;;;;;;;;;14.30;99.90;;;;;;5056784;28;19971;-68
2022/06/17 04:16:19;;;;;;;;;;;14.30;99.90;;;;;;5054814;28;19959;-68
2022/06/17 04:18:44;;;;;;;;;;;14.30;99.90;;;;;;5052034;28;19928;-68
2022/06/17 04:21:12;;;;;;;;;;;14.60;99.90;;;;;;5059313;28;20323;-68
2022/06/17 04:23:38;;;;;;;;;;;14.30;99.90;;;;;;5056892;28;20698;-68
2022/06/17 04:26:08;;;;;;;;;;;14.30;99.90;;;;;;5053975;28;20007;-68
2022/06/17 04:28:55;;;;;;;;;;;14.40;99.90;;;;;;5055769;28;20468;-68
2022/06/17 04:31:22;;;;;;;;;;;14.40;99.90;;;;;;5054282;28;19924;-68
2022/06/17 04:33:51;;;;;;;;;;;14.50;99.90;;;;;;5053899;28;19980;-68
2022/06/17 04:36:19;;;;;;;;;;;14.40;99.90;;;;;;5055878;28;20015;-68
2022/06/17 04:38:47;;;;;;;;;;;14.50;99.90;;;;;;5058200;28;19944;-68
2022/06/17 04:41:13;;;;;;;;;;;14.50;99.90;;;;;;5053819;28;19921;-68
2022/06/17 04:43:41;;;;;;;;;;;14.50;99.90;;;;;;5051487;28;19985;-68
2022/06/17 04:46:17;;;;;;;;;;;14.60;99.90;;;;;;5054272;28;20370;-68
2022/06/17 04:48:43;;;;;;;;;;;14.60;99.90;;;;;;5053507;28;19978;-68
2022/06/17 04:51:09;;;;;;;;;;;14.60;99.90;;;;;;5056040;28;19929;-68
2022/06/17 04:53:35;;;;;;;;;;;14.60;99.90;;;;;;5050557;28;19928;-68
2022/06/17 04:56:02;;;;;;;;;;;14.60;99.90;;;;;;5053461;28;19924;-68
2022/06/17 04:58:30;;;;;;;;;;;14.70;99.90;;;;;;5055324;28;19955;-69
2022/06/17 05:00:56;;;;;;;;;;;14.70;99.90;;;;;;5049635;28;19929;-68
2022/06/17 05:03:24;;;;;;;;;;;14.70;99.90;;;;;;5053232;28;19920;-68
2022/06/17 05:05:50;;;;;;;;;;;14.70;99.90;;;;;;5051772;28;19928;-68
2022/06/17 05:08:22;;;;;;;;;;;14.80;99.90;;;;;;5054245;28;20003;-68
2022/06/17 05:10:49;;;;;;;;;;;14.90;99.90;;;;;;5052360;28;20332;-68
2022/06/17 05:13:15;;;;;;;;;;;14.90;99.90;;;;;;5055349;28;19928;-68
2022/06/17 05:15:40;;;;;;;;;;;14.90;99.90;;;;;;5053462;28;19982;-68
2022/06/17 05:18:06;;;;;;;;;;;14.90;99.90;;;;;;5052870;28;19931;-68
2022/06/17 05:20:31;;;;;;;;;;;14.90;99.90;;;;;;5051628;28;19924;-68
2022/06/17 05:23:02;;;;;;;;;;;15.00;99.90;;;;;;5052724;28;19924;-68
2022/06/17 05:25:32;;;;;;;;;;;15.00;99.90;;;;;;5055063;28;19994;-68
2022/06/17 05:27:58;;;;;;;;;;;15.00;99.90;;;;;;5054105;28;19920;-68
2022/06/17 05:30:23;;;;;;;;;;;15.10;99.90;;;;;;5054112;28;20289;-68
2022/06/17 05:32:50;;;;;;;;;;;15.10;99.90;;;;;;5054245;28;20023;-68
2022/06/17 05:35:16;;;;;;;;;;;15.10;99.90;;;;;;5051340;28;20390;-68
2022/06/17 05:37:42;;;;;;;;;;;15.10;99.90;;;;;;5055283;28;19970;-68
2022/06/17 05:40:08;;;;;;;;;;;15.20;99.90;;;;;;5051445;28;19921;-68
2022/06/17 05:42:35;;;;;;;;;;;15.20;99.90;;;;;;5053203;28;19924;-68
2022/06/17 05:45:00;;;;;;;;;;;15.30;99.90;;;;;;5054248;28;19924;-68
2022/06/17 05:47:26;;;;;;;;;;;15.40;99.90;;;;;;5051377;28;19928;-68
2022/06/17 05:49:51;;;;;;;;;;;15.40;99.90;;;;;;5053606;28;19921;-68
2022/06/17 05:52:18;;;;;;;;;;;15.40;99.90;;;;;;5053723;28;20025;-68
2022/06/17 05:54:44;;;;;;;;;;;15.50;99.90;;;;;;5051609;28;19969;-68
2022/06/17 05:57:09;;;;;;;;;;;15.60;99.90;;;;;;5050224;28;19960;-67
2022/06/17 05:59:35;;;;;;;;;;;15.60;99.90;;;;;;5050159;28;19928;-68
2022/06/17 06:02:00;;;;;;;;;;;15.70;99.90;;;;;;5056396;28;20441;-67
2022/06/17 06:04:26;;;;;;;;;;;15.70;99.90;;;;;;5055370;28;19920;-68
2022/06/17 06:06:51;;;;;;;;;;;15.70;99.90;;;;;;5053669;28;20621;-68
2022/06/17 06:09:17;;;;;;;;;;;15.80;99.90;;;;;;5054262;28;20054;-68
2022/06/17 06:11:43;;;;;;;;;;;15.90;99.90;;;;;;5050478;28;19925;-68
2022/06/17 06:14:08;;;;;;;;;;;15.90;99.90;;;;;;5055528;28;20403;-68
2022/06/17 06:16:34;;;;;;;;;;;16.20;99.90;;;;;;5048855;28;20004;-68
2022/06/17 06:19:00;;;;;;;;;;;16.00;99.90;;;;;;5055703;28;19931;-68
2022/06/17 06:21:26;;;;;;;;;;;16.00;99.90;;;;;;5052937;28;19924;-68
2022/06/17 06:23:54;;;;;;;;;;;16.10;99.90;;;;;;5054520;28;20416;-68
2022/06/17 06:26:20;;;;;;;;;;;16.20;99.90;;;;;;5053922;28;19921;-68
2022/06/17 06:28:46;;;;;;;;;;;16.20;99.90;;;;;;5050984;28;19924;-68
2022/06/17 06:31:23;;;;;;;;;;;16.30;99.90;;;;;;5053597;28;19992;-68
2022/06/17 06:33:49;;;;;;;;;;;16.40;99.90;;;;;;5051526;28;19971;-68
2022/06/17 06:36:14;;;;;;;;;;;16.40;99.90;;;;;;5050349;28;19974;-68
2022/06/17 06:38:40;;;;;;;;;;;16.50;99.90;;;;;;5053825;28;19924;-68
2022/06/17 06:41:05;;;;;;;;;;;16.60;99.90;;;;;;5055798;28;20299;-68
2022/06/17 06:43:31;;;;;;;;;;;16.80;99.90;;;;;;5052481;28;19928;-68
2022/06/17 06:45:57;;;;;;;;;;;16.90;99.90;;;;;;5052346;28;19921;-68
2022/06/17 06:48:24;;;;;;;;;;;16.90;99.90;;;;;;5054375;28;19920;-69
2022/06/17 06:50:49;;;;;;;;;;;17.10;99.90;;;;;;5049511;28;20070;-68
2022/06/17 06:53:15;;;;;;;;;;;17.30;99.90;;;;;;5053798;28;20023;-69
2022/06/17 06:55:41;;;;;;;;;;;17.20;99.90;;;;;;5053392;28;20445;-68
2022/06/17 06:58:11;;;;;;;;;;;17.30;99.90;;;;;;5049015;28;19920;-68
2022/06/17 07:00:38;;;;;;;;;;;17.40;99.90;;;;;;5051026;28;20568;-68
2022/06/17 07:03:04;;;;;;;;;;;17.50;99.90;;;;;;5050386;28;20250;-68
2022/06/17 07:05:31;;;;;;;;;;;17.60;99.90;;;;;;5048283;28;20426;-68
2022/06/17 07:07:57;;;;;;;;;;;17.80;99.90;;;;;;5050489;28;20472;-69
2022/06/17 07:10:25;;;;;;;;;;;17.70;99.90;;;;;;5051051;28;19921;-68
2022/06/17 07:12:51;;;;;;;;;;;17.70;99.90;;;;;;5053522;28;19931;-68
2022/06/17 07:15:17;;;;;;;;;;;17.70;99.90;;;;;;5051443;28;19921;-68
2022/06/17 07:17:56;;;;;;;;;;;17.80;99.90;;;;;;5061015;28;19924;-68
2022/06/17 07:20:23;;;;;;;;;;;17.90;99.90;;;;;;5049970;28;19927;-68
2022/06/17 07:22:49;;;;;;;;;;;17.90;99.90;;;;;;5049414;28;19924;-68
2022/06/17 07:25:14;;;;;;;;;;;18.00;99.90;;;;;;5051408;28;20300;-68
2022/06/17 07:27:40;;;;;;;;;;;18.00;99.90;;;;;;5050393;28;20003;-71
2022/06/17 07:30:06;;;;;;;;;;;18.10;99.90;;;;;;5049464;28;19931;-71
2022/06/17 07:32:31;;;;;;;;;;;18.20;99.90;;;;;;5044513;28;19920;-70
2022/06/17 07:34:57;;;;;;;;;;;18.30;99.90;;;;;;5064409;28;20013;-66
2022/06/17 07:40:07;;;;;;;;;;;18.40;99.90;;;;;;5047511;28;19920;-73
2022/06/17 07:42:38;;;;;;;;;;;18.50;99.90;;;;;;5046829;28;19928;-74
2022/06/17 07:45:05;;;;;;;;;;;18.60;99.90;;;;;;5046044;28;20058;-74
2022/06/17 07:47:30;;;;;;;;;;;18.60;99.90;;;;;;5053158;28;20465;-73
2022/06/17 07:49:56;;;;;;;;;;;18.70;99.90;;;;;;5052944;28;20015;-72
2022/06/17 07:52:21;;;;;;;;;;;18.80;99.90;;;;;;5048046;28;19921;-73
2022/06/17 07:54:47;;;;;;;;;;;18.90;99.90;;;;;;5049719;28;19932;-75
2022/06/17 07:57:13;;;;;;;;;;;18.90;99.90;;;;;;5057940;28;20368;-73
2022/06/17 07:59:38;;;;;;;;;;;19.00;99.90;;;;;;5051379;28;20016;-74
2022/06/17 08:02:04;;;;;;;;;;;19.10;99.90;;;;;;5056327;28;19932;-73
2022/06/17 08:04:29;;;;;;;;;;;19.20;99.90;;;;;;5053651;28;19930;-73
2022/06/17 08:06:55;;;;;;;;;;;19.20;99.90;;;;;;5048708;28;19935;-76
2022/06/17 08:09:21;;;;;;;;;;;19.40;99.90;;;;;;5060436;28;20010;-73
2022/06/17 08:11:48;;;;;;;;;;;19.30;99.90;;;;;;5056153;28;20313;-73
2022/06/17 08:14:13;;;;;;;;;;;19.30;99.90;;;;;;5054229;28;20409;-74
2022/06/17 08:16:39;;;;;;;;;;;19.30;99.90;;;;;;5059807;28;20027;-73
2022/06/17 08:19:07;;;;;;;;;;;19.40;99.90;;;;;;5053269;28;20281;-74
2022/06/17 08:21:33;;;;;;;;;;;19.50;99.90;;;;;;5055613;28;19927;-73
2022/06/17 08:23:59;;;;;;;;;;;19.70;99.90;;;;;;5051891;28;19924;-73
2022/06/17 08:26:24;;;;;;;;;;;20.10;99.90;;;;;;5049645;28;19928;-74
2022/06/17 08:28:50;;;;;;;;;;;20.00;99.90;;;;;;5045246;28;19932;-74
2022/06/17 08:31:15;;;;;;;;;;;20.10;99.90;;;;;;5059732;28;20444;-70
2022/06/17 08:33:41;;;;;;;;;;;20.10;99.90;;;;;;5045646;28;19970;-72
2022/06/17 08:36:08;;;;;;;;;;;20.20;99.90;;;;;;5048837;28;19921;-71
2022/06/17 08:38:35;;;;;;;;;;;20.30;99.90;;;;;;5059806;28;20432;-71
2022/06/17 08:41:10;;;;;;;;;;;20.40;99.90;;;;;;5060350;28;19928;-72
2022/06/17 08:43:45;;;;;;;;;;;20.40;99.90;;;;;;5045655;28;19929;-71
2022/06/17 08:46:23;;;;;;;;;;;20.40;99.90;;;;;;5066309;28;19925;-71
2022/06/17 08:49:09;;;;;;;;;;;20.40;99.90;;;;;;5053512;28;20368;-72
2022/06/17 08:51:34;;;;;;;;;;;20.40;99.90;;;;;;5047174;28;19936;-71
2022/06/17 08:54:23;;;;;;;;;;;20.40;99.90;;;;;;5057204;28;19924;-72
2022/06/17 08:56:48;;;;;;;;;;;20.40;99.90;;;;;;5051902;28;20000;-72
2022/06/17 08:59:33;;;;;;;;;;;20.40;99.90;;;;;;5051358;28;19974;-72
2022/06/17 09:01:58;;;;;;;;;;;20.40;99.90;;;;;;5047847;28;19976;-72
2022/06/17 09:04:43;;;;;;;;;;;20.40;99.90;;;;;;5048319;28;19959;-72
2022/06/17 09:07:43;;;;;;;;;;;20.40;99.90;;;;;;5067011;28;19924;-71
2022/06/17 09:10:09;;;;;;;;;;;20.50;99.90;;;;;;5010805;28;19932;-72
2022/06/17 09:12:47;;;;;;;;;;;20.50;99.90;;;;;;5040838;28;20008;-72
2022/06/17 09:15:25;;;;;;;;;;;20.50;99.90;;;;;;5056968;28;19920;-72
2022/06/17 09:17:57;;;;;;;;;;;20.60;99.90;;;;;;5052154;28;19921;-72
2022/06/17 09:20:24;;;;;;;;;;;20.60;99.90;;;;;;5056026;28;19920;-71
2022/06/17 09:22:53;;;;;;;;;;;20.70;99.90;;;;;;5052018;28;19925;-73
2022/06/17 09:25:21;;;;;;;;;;;20.70;99.90;;;;;;5051041;28;19924;-72
2022/06/17 09:27:48;;;;;;;;;;;20.80;99.90;;;;;;5054453;28;19924;-72
2022/06/17 09:30:17;;;;;;;;;;;21.00;99.90;;;;;;5057063;28;19924;-72
2022/06/17 09:32:44;;;;;;;;;;;21.00;99.90;;;;;;5053638;28;19966;-72
2022/06/17 09:35:21;;;;;;;;;;;21.30;99.90;;;;;;5051406;28;19924;-71
2022/06/17 09:37:46;;;;;;;;;;;21.60;99.90;;;;;;5054893;28;20044;-71
2022/06/17 09:40:16;;;;;;;;;;;21.80;99.90;;;;;;5050375;28;20359;-71
2022/06/17 09:42:47;;;;;;;;;;;21.90;99.90;;;;;;5056326;28;19963;-71
2022/06/17 09:45:16;;;;;;;;;;;22.00;99.90;;;;;;5051711;28;19977;-71
2022/06/17 09:47:45;;;;;;;;;;;22.00;99.90;;;;;;5055987;28;20456;-72
2022/06/17 09:50:13;;;;;;;;;;;22.00;99.90;;;;;;5047593;28;19951;-71
2022/06/17 09:52:41;;;;;;;;;;;21.90;99.90;;;;;;5054085;28;19928;-71
2022/06/17 09:55:29;;;;;;;;;;;21.90;99.90;;;;;;5057718;28;20425;-71
2022/06/17 09:58:00;;;;;;;;;;;21.80;99.90;;;;;;5056287;28;19970;-71
2022/06/17 10:00:28;;;;;;;;;;;21.80;99.90;;;;;;5054596;28;20431;-71
2022/06/17 10:03:14;;;;;;;;;;;21.80;99.90;;;;;;5063387;28;19924;-71
2022/06/17 10:05:59;;;;;;;;;;;21.80;99.90;;;;;;5042869;28;19925;-71
2022/06/17 10:08:37;;;;;;;;;;;21.70;99.90;;;;;;5045855;28;19925;-70
2022/06/17 10:11:05;;;;;;;;;;;21.70;99.90;;;;;;5044820;28;20046;-71
2022/06/17 10:13:33;;;;;;;;;;;21.60;99.90;;;;;;5044778;28;19951;-71
2022/06/17 10:18:49;;;;;;;;;;;21.60;99.90;;;;;;5046832;28;20423;-71
2022/06/17 10:21:18;;;;;;;;;;;21.60;99.90;;;;;;5047457;28;20019;-71
2022/06/17 10:23:43;;;;;;;;;;;21.60;99.90;;;;;;5046927;28;20546;-71
2022/06/17 10:26:18;;;;;;;;;;;21.70;99.90;;;;;;5048699;28;19971;-71
2022/06/17 10:28:46;;;;;;;;;;;21.70;99.90;;;;;;5053339;28;19924;-72
2022/06/17 10:31:24;;;;;;;;;;;21.70;99.90;;;;;;5052232;28;19929;-71
2022/06/17 10:33:49;;;;;;;;;;;21.80;99.90;;;;;;5054729;28;20418;-71
2022/06/17 10:36:15;;;;;;;;;;;21.90;99.90;;;;;;5053319;28;20037;-70
2022/06/17 10:38:45;;;;;;;;;;;21.90;99.90;;;;;;5052169;28;20008;-71
2022/06/17 10:41:12;;;;;;;;;;;22.00;99.90;;;;;;5050868;28;20320;-71
2022/06/17 10:43:46;;;;;;;;;;;22.20;99.90;;;;;;5051958;28;20003;-73
2022/06/17 10:46:23;;;;;;;;;;;22.40;99.90;;;;;;5052471;28;20345;-73
2022/06/17 10:48:52;;;;;;;;;;;22.50;99.90;;;;;;5055177;28;19993;-72
2022/06/17 10:51:18;;;;;;;;;;;22.60;99.90;;;;;;5054283;28;19921;-73
2022/06/17 10:53:56;;;;;;;;;;;22.70;99.90;;;;;;5051788;28;20348;-72
2022/06/17 10:56:24;;;;;;;;;;;22.60;99.90;;;;;;5054377;28;19927;-74
2022/06/17 10:58:59;;;;;;;;;;;22.60;99.90;;;;;;5049977;28;20015;-73
2022/06/17 11:01:45;;;;;;;;;;;22.60;99.90;;;;;;5051925;28;19929;-72
2022/06/17 11:04:25;;;;;;;;;;;22.70;99.90;;;;;;5054270;28;20017;-72
2022/06/17 11:06:57;;;;;;;;;;;22.70;99.90;;;;;;5050700;28;20403;-73
2022/06/17 11:09:35;;;;;;;;;;;22.90;99.90;;;;;;5048462;28;19921;-73
2022/06/17 11:12:10;;;;;;;;;;;23.00;99.90;;;;;;5051011;28;19924;-73
2022/06/17 11:14:44;;;;;;;;;;;23.10;99.90;;;;;;5052063;28;19929;-71
2022/06/17 11:17:15;;;;;;;;;;;23.30;99.90;;;;;;5051521;28;19920;-73
2022/06/17 11:19:41;;;;;;;;;;;23.40;99.90;;;;;;5038837;28;20015;-73
2022/06/17 11:22:16;;;;;;;;;;;23.50;99.90;;;;;;5052611;28;19920;-72
2022/06/17 11:24:42;;;;;;;;;;;23.60;99.90;;;;;;5034030;28;20078;-72
2022/06/17 11:27:22;;;;;;;;;;;23.70;99.90;;;;;;5056768;28;20006;-72
2022/06/17 11:29:50;;;;;;;;;;;23.70;99.90;;;;;;5050843;28;19928;-66
2022/06/17 11:32:25;;;;;;;;;;;23.80;99.90;;;;;;5053429;28;19983;-69
2022/06/17 11:34:53;;;;;;;;;;;23.90;99.90;;;;;;5056238;28;19924;-69
2022/06/17 11:37:20;;;;;;;;;;;24.00;99.90;;;;;;5053662;28;20010;-69
2022/06/17 11:39:46;;;;;;;;;;;24.00;99.90;;;;;;5051388;28;20467;-69
2022/06/17 11:42:14;;;;;;;;;;;24.00;99.90;;;;;;5050174;28;20088;-69
2022/06/17 11:45:09;;;;;;;;;;;24.00;99.90;;;;;;5053319;28;20908;-69
2022/06/17 11:47:35;;;;;;;;;;;24.10;99.90;;;;;;5040893;28;20539;-69
2022/06/17 11:50:12;;;;;;;;;;;24.10;99.90;;;;;;5050674;28;19925;-69
2022/06/17 11:52:37;;;;;;;;;;;24.10;99.90;;;;;;5055904;28;20280;-69
2022/06/17 11:55:04;;;;;;;;;;;24.30;99.90;;;;;;5049519;28;19927;-69
2022/06/17 11:57:31;;;;;;;;;;;24.40;99.90;;;;;;5050903;28;19928;-70
2022/06/17 11:59:59;;;;;;;;;;;24.70;99.90;;;;;;5051540;28;20004;-70
2022/06/17 12:02:25;;;;;;;;;;;24.90;99.90;;;;;;5052179;28;20072;-69
2022/06/17 12:04:54;;;;;;;;;;;25.10;99.90;;;;;;5053212;28;19924;-69
2022/06/17 12:07:38;;;;;;;;;;;25.30;99.90;;;;;;5059050;28;19990;-69
2022/06/17 12:10:16;;;;;;;;;;;25.50;99.60;;;;;;5044407;28;19998;-69
2022/06/17 12:12:41;;;;;;;;;;;25.50;94.40;;;;;;5051159;28;20349;-69
2022/06/17 12:15:19;;;;;;;;;;;25.50;99.40;;;;;;5050616;28;20399;-69
2022/06/17 12:17:45;;;;;;;;;;;25.50;99.90;;;;;;5049125;28;19999;-69
2022/06/17 12:20:13;;;;;;;;;;;25.70;99.60;;;;;;5056309;28;19937;-69
2022/06/17 12:22:41;;;;;;;;;;;25.70;99.90;;;;;;5052128;28;20002;-70
2022/06/17 12:25:06;;;;;;;;;;;25.80;92.80;;;;;;5051418;28;20399;-69
2022/06/17 12:27:37;;;;;;;;;;;25.90;96.30;;;;;;5048877;28;19924;-69
2022/06/17 12:30:03;;;;;;;;;;;26.10;90.10;;;;;;5048600;28;19927;-69
2022/06/17 12:32:31;;;;;;;;;;;26.10;87.20;;;;;;5048294;28;19924;-70
2022/06/17 12:35:02;;;;;;;;;;;26.10;91.50;;;;;;5050668;28;19924;-69
2022/06/17 12:37:32;;;;;;;;;;;26.00;87.40;;;;;;5049050;28;19927;-69
2022/06/17 12:40:17;;;;;;;;;;;25.90;86.10;;;;;;5051064;28;19966;-70
2022/06/17 12:42:55;;;;;;;;;;;25.90;91.20;;;;;;5050881;28;19986;-69
2022/06/17 12:45:27;;;;;;;;;;;25.70;82.90;;;;;;5051577;28;19932;-68
2022/06/17 12:48:04;;;;;;;;;;;25.60;86.80;;;;;;5050577;28;19932;-68
2022/06/17 12:53:26;;;;;;;;;;;25.40;77.90;;;;;;5046457;28;20007;-68
2022/06/17 12:56:12;;;;;;;;;;;25.40;83.70;;;;;;5047922;28;20396;-68
2022/06/17 12:58:38;;;;;;;;;;;25.40;76.20;;;;;;5047440;28;19928;-68
2022/06/17 13:01:09;;;;;;;;;;;25.30;78.00;;;;;;5047695;28;19924;-68
2022/06/17 13:03:35;;;;;;;;;;;25.20;85.30;;;;;;5047508;28;20428;-68
2022/06/17 13:06:13;;;;;;;;;;;25.10;80.00;;;;;;5049409;28;19920;-68
2022/06/17 13:08:47;;;;;;;;;;;25.00;79.90;;;;;;5047597;28;19925;-68
2022/06/17 13:11:12;;;;;;;;;;;24.90;77.50;;;;;;5049723;28;19921;-68
2022/06/17 13:13:54;;;;;;;;;;;24.90;81.70;;;;;;5047922;28;19997;-68
2022/06/17 13:16:35;;;;;;;;;;;24.80;84.20;;;;;;5048913;28;19932;-68
2022/06/17 13:19:03;;;;;;;;;;;24.70;81.20;;;;;;5047656;28;19925;-68
2022/06/17 13:21:33;;;;;;;;;;;24.80;84.50;;;;;;5049469;28;20008;-68
2022/06/17 13:23:58;;;;;;;;;;;24.80;86.10;;;;;;5048450;28;19927;-68
2022/06/17 13:26:31;;;;;;;;;;;24.80;88.00;;;;;;5049553;28;19925;-68
2022/06/17 13:29:12;;;;;;;;;;;24.90;78.50;;;;;;5047752;28;19959;-68
2022/06/17 13:31:56;;;;;;;;;;;25.00;79.80;;;;;;5047111;28;19927;-68
2022/06/17 13:34:27;;;;;;;;;;;25.10;81.30;;;;;;5047972;28;19974;-68
2022/06/17 13:36:56;;;;;;;;;;;25.20;80.30;;;;;;5048583;28;19924;-68
2022/06/17 13:39:28;;;;;;;;;;;25.30;87.30;;;;;;5048789;28;19982;-68
2022/06/17 13:42:04;;;;;;;;;;;25.50;78.00;;;;;;5048844;28;20455;-68
2022/06/17 13:44:48;;;;;;;;;;;25.60;83.20;;;;;;5047159;28;19927;-68
2022/06/17 13:47:26;;;;;;;;;;;25.80;84.90;;;;;;5048882;28;20042;-68
2022/06/17 13:49:53;;;;;;;;;;;26.00;89.70;;;;;;5047531;28;19924;-68
2022/06/17 13:52:29;;;;;;;;;;;26.30;83.50;;;;;;5048451;28;19925;-68
2022/06/17 13:55:14;;;;;;;;;;;26.60;76.30;;;;;;5048992;28;19921;-68
2022/06/17 13:57:42;;;;;;;;;;;26.80;70.80;;;;;;5047090;28;19925;-68
2022/06/17 14:00:23;;;;;;;;;;;27.00;76.50;;;;;;5048103;28;19927;-68
2022/06/17 14:02:57;;;;;;;;;;;27.00;71.60;;;;;;5047345;28;20020;-68
2022/06/17 14:05:35;;;;;;;;;;;26.80;71.00;;;;;;5048238;28;20000;-68
2022/06/17 14:08:02;;;;;;;;;;;26.90;77.60;;;;;;5048305;28;20480;-68
2022/06/17 14:10:28;;;;;;;;;;;27.00;73.30;;;;;;5047906;28;20092;-69
2022/06/17 14:12:54;;;;;;;;;;;27.20;73.50;;;;;;5046866;28;20494;-68
2022/06/17 14:15:25;;;;;;;;;;;27.20;69.50;;;;;;5048786;28;19986;-68
2022/06/17 14:17:54;;;;;;;;;;;27.20;70.00;;;;;;5048361;28;20278;-68
2022/06/17 14:20:25;;;;;;;;;;;27.30;67.40;;;;;;5047687;28;20341;-68
2022/06/17 14:23:02;;;;;;;;;;;27.30;68.20;;;;;;5047300;28;20357;-68
2022/06/17 14:25:44;;;;;;;;;;;27.30;68.00;;;;;;5047905;28;19973;-68
2022/06/17 14:28:29;;;;;;;;;;;27.20;65.60;;;;;;5046136;28;20011;-68
2022/06/17 14:31:08;;;;;;;;;;;27.20;66.20;;;;;;5046809;28;19924;-68
2022/06/17 14:33:39;;;;;;;;;;;27.20;66.00;;;;;;5045979;28;19927;-68
2022/06/17 14:36:08;;;;;;;;;;;27.30;69.90;;;;;;5047617;28;19921;-68
2022/06/17 14:38:35;;;;;;;;;;;27.40;66.40;;;;;;5046490;28;19960;-68